Terminal Aerodrome Forecast
Issued by NWS Jackson, KY

Home | Current Version | Previous Version | Text Only | Print | Product List | Glossary On
Versions: 1 2 3 4 5 6 7 8 9 10 11 12 13 14 15 16 17 18 19 20 21 22 23 24 25 26 27
887
FTUS43 KJKL 081739
TAFJKL
TAF
KJKL 081739Z 0818/0918 26006KT 6SM -SHRASN BKN030
      TEMPO 0818/0820 1SM -SHSN BR OVC015
     FM082200 27006KT 3SM -SHSNRA BR BKN025
     FM090100 27006KT 3SM -SHSN BR BKN008
     FM090500 27005KT 3SM -SN BR OVC012=

USA.gov is the U.S. government's official web portal to all federal, state and local government web resources and services.